»·PEaware :: N2442P KHQM-KOLM

N2442P :: KHQM-KOLM

FLIGHT INFORMATION

Flight Status: Arrived
Operator: Privately registered:
United States
More flights under this callsign
Pilot: Ken Q. (14290)
Aircraft: CESSNA T210 TURBO CENTURION
(T210)
More flights by this aircraft type
Origin: KHQM Bowerman
United States
Destination: KOLM Olympia
United States
More flights between these airports :: More routes between these airports
Route: KHQM OLM KOLM
File this flight plan on PilotEdge
Remarks: X
Altitude:
(Current/Filed)
5,500ft
Speed:
(Current/Filed)
165kts
Departed: 04-Jun-19 12:39 PM
Arrived: 04-Jun-19 01:03 PM
Distance/Time
Traveled:
43nm/0:24
Distance/Time
To Go:
Arrived

Flight Plot

Page will automatically refresh every two minutes.

Flight plan parsing failed; only flown route is shown


Map Options




Map Legend


Flown Route
Filed Route
Departure Airport
Arrival Airport
Navaid (VOR, NDB)
Fix

Horizontal Profiles

Position Reports

Time Latitude Longitude Heading Altitude Ground
Speed
04-Jun-19 12:16 46.973492 -123.930139 2 17ft 0kts
04-Jun-19 12:17 46.973492 -123.930139 2 17ft 0kts
04-Jun-19 12:18 46.973492 -123.930139 2 17ft 0kts
04-Jun-19 12:19 46.973492 -123.930139 2 17ft 0kts
04-Jun-19 12:20 46.973492 -123.930139 2 17ft 0kts
04-Jun-19 12:21 46.973492 -123.930139 2 17ft 0kts
04-Jun-19 12:22 46.973492 -123.930139 2 17ft 0kts
04-Jun-19 12:23 46.973492 -123.930139 2 17ft 0kts
04-Jun-19 12:24 46.973492 -123.930139 2 17ft 0kts
04-Jun-19 12:25 46.973492 -123.930139 2 17ft 0kts
04-Jun-19 12:26 46.973492 -123.930139 2 17ft 0kts
04-Jun-19 12:27 46.973493 -123.930139 3 17ft 0kts
04-Jun-19 12:28 46.973493 -123.930139 3 17ft 0kts
04-Jun-19 12:29 46.973493 -123.930139 3 17ft 0kts
04-Jun-19 12:30 46.973494 -123.930139 3 17ft 0kts
04-Jun-19 12:31 46.973494 -123.930139 3 17ft 0kts
04-Jun-19 12:32 46.973307 -123.929748 134 17ft 6kts
04-Jun-19 12:33 46.973439 -123.927551 59 17ft 6kts
04-Jun-19 12:34 46.973433 -123.927448 269 17ft 0kts
04-Jun-19 12:35 46.973433 -123.927460 268 17ft 0kts
04-Jun-19 12:36 46.973433 -123.927466 268 17ft 0kts
04-Jun-19 12:37 46.972846 -123.926921 155 17ft 6kts
04-Jun-19 12:38 46.970759 -123.938914 259 297ft 80kts
04-Jun-19 12:39 46.949396 -123.945331 108 1291ft 158kts
04-Jun-19 12:40 46.951110 -123.880533 89 2229ft 151kts
04-Jun-19 12:41 46.950955 -123.823109 89 3103ft 133kts
04-Jun-19 12:42 46.950685 -123.769611 89 4000ft 131kts
04-Jun-19 12:43 46.950700 -123.717795 89 4857ft 130kts
04-Jun-19 12:44 46.950987 -123.663704 88 5529ft 145kts
04-Jun-19 12:45 46.952144 -123.598448 88 5521ft 168kts
04-Jun-19 12:46 46.953359 -123.529956 88 5512ft 168kts
04-Jun-19 12:47 46.954572 -123.461619 88 5507ft 168kts
04-Jun-19 12:48 46.955827 -123.393172 88 5503ft 168kts
04-Jun-19 12:49 46.957047 -123.325150 88 5497ft 164kts
04-Jun-19 12:50 46.958233 -123.258110 88 5112ft 166kts
04-Jun-19 12:51 46.959744 -123.190933 87 4612ft 164kts
04-Jun-19 12:52 46.961730 -123.124663 87 4112ft 160kts
04-Jun-19 12:53 46.963349 -123.060998 87 3600ft 147kts
04-Jun-19 12:54 46.984989 -123.030748 359 3107ft 132kts
04-Jun-19 12:55 47.021037 -123.019508 20 2610ft 132kts
04-Jun-19 12:56 47.049944 -122.987281 52 2121ft 132kts
04-Jun-19 12:57 47.055088 -122.937453 106 1611ft 122kts
04-Jun-19 12:58 47.042643 -122.899156 128 1136ft 86kts
04-Jun-19 12:59 47.024973 -122.889284 183 1035ft 77kts
04-Jun-19 13:01 47.001872 -122.894722 184 843ft 85kts
04-Jun-19 13:02 46.981813 -122.900678 186 383ft 70kts
04-Jun-19 13:03 46.969690 -122.904314 192 201ft 19kts
04-Jun-19 13:04 46.967275 -122.901680 89 201ft 9kts
04-Jun-19 13:05 46.970668 -122.899332 48 201ft 17kts
04-Jun-19 13:06 46.972850 -122.895643 113 201ft 7kts
04-Jun-19 13:07 46.972800 -122.895226 314 201ft 0kts
04-Jun-19 13:08 46.972800 -122.895226 314 201ft 0kts
04-Jun-19 13:09 46.972800 -122.895226 314 201ft 0kts

Navigation Log

Ident Type
Flight plan parsing failed, navigation log unavailable